createdAt,value
2024-02-24T00:00:14.365Z,0.062
2024-02-24T00:02:14.211Z,0.054
2024-02-24T00:03:13.948Z,0.062
2024-02-24T00:05:14.796Z,0.062
2024-02-24T00:06:15.228Z,0.062
2024-02-24T00:07:14.070Z,0.062
2024-02-24T00:08:14.076Z,0.062
2024-02-24T00:09:13.888Z,0.062
2024-02-24T00:10:14.652Z,0.062
2024-02-24T00:11:15.228Z,0.062
2024-02-24T00:12:15.063Z,0.062
2024-02-24T00:14:14.179Z,0.071
2024-02-24T00:15:13.943Z,0.071
2024-02-24T00:16:14.624Z,0.071
2024-02-24T00:17:14.858Z,0.071
2024-02-24T00:18:14.433Z,0.071
2024-02-24T00:19:14.756Z,0.071
2024-02-24T00:20:14.925Z,0.071
2024-02-24T00:21:13.971Z,0.071
2024-02-24T00:22:14.617Z,0.071
2024-02-24T00:23:14.654Z,0.071
2024-02-24T00:24:14.375Z,0.071
2024-02-24T00:25:13.988Z,0.071
2024-02-24T00:28:14.428Z,0.071
2024-02-24T00:29:14.384Z,0.080
2024-02-24T00:30:14.272Z,0.080
2024-02-24T00:32:14.037Z,0.080
2024-02-24T00:33:13.931Z,0.071
2024-02-24T00:34:14.838Z,0.071
2024-02-24T00:35:14.803Z,0.080
2024-02-24T00:37:14.287Z,0.080
2024-02-24T00:38:14.165Z,0.080
2024-02-24T00:39:13.877Z,0.080
2024-02-24T00:40:14.673Z,0.071
2024-02-24T00:41:14.817Z,0.071
2024-02-24T00:42:14.485Z,0.071
2024-02-24T00:43:14.180Z,0.071
2024-02-24T00:44:13.877Z,0.071
2024-02-24T00:45:14.611Z,0.080
2024-02-24T00:46:14.216Z,0.071
2024-02-24T00:47:14.015Z,0.071
2024-02-24T00:48:14.317Z,0.071
2024-02-24T00:49:14.201Z,0.071
2024-02-24T00:51:13.780Z,0.071
2024-02-24T00:52:14.510Z,0.071
2024-02-24T00:53:14.360Z,0.071
2024-02-24T00:54:14.037Z,0.071
2024-02-24T00:55:13.775Z,0.071
2024-02-24T00:56:14.861Z,0.071
2024-02-24T00:57:14.657Z,0.071
2024-02-24T00:58:14.314Z,0.071
2024-02-24T01:00:13.930Z,0.071
2024-02-24T01:01:15.342Z,0.071
2024-02-24T01:02:14.321Z,0.045
2024-02-24T01:03:13.973Z,0.045
2024-02-24T01:04:14.021Z,0.045
2024-02-24T01:07:14.839Z,0.054
2024-02-24T01:09:14.245Z,0.045
2024-02-24T01:10:13.996Z,0.045
2024-02-24T01:11:14.108Z,0.045
2024-02-24T01:12:14.090Z,0.045
2024-02-24T01:13:13.839Z,0.045
2024-02-24T01:14:15.298Z,0.045
2024-02-24T01:15:14.509Z,0.071
2024-02-24T01:16:14.173Z,0.054
2024-02-24T01:17:14.010Z,0.054
2024-02-24T01:18:15.268Z,0.054
2024-02-24T01:20:14.612Z,0.054
2024-02-24T01:21:14.405Z,0.054
2024-02-24T01:22:14.231Z,0.054
2024-02-24T01:23:14.051Z,0.045
2024-02-24T01:25:14.464Z,0.080
2024-02-24T01:26:14.381Z,0.071
2024-02-24T01:27:14.075Z,0.071
2024-02-24T01:28:13.807Z,0.080
2024-02-24T01:29:14.776Z,0.071
2024-02-24T01:30:14.854Z,0.062
2024-02-24T01:31:14.748Z,0.062
2024-02-24T01:32:15.037Z,0.062
2024-02-24T01:33:14.880Z,0.062
2024-02-24T01:34:14.274Z,0.062
2024-02-24T01:35:14.234Z,0.062
2024-02-24T01:36:14.306Z,0.062
2024-02-24T01:37:14.056Z,0.062
2024-02-24T01:38:13.987Z,0.062
2024-02-24T01:39:13.650Z,0.062
2024-02-24T01:40:14.572Z,0.062
2024-02-24T01:41:14.436Z,0.071
2024-02-24T01:42:14.125Z,0.071
2024-02-24T01:43:13.774Z,0.062
2024-02-24T01:44:14.625Z,0.062
2024-02-24T01:45:14.310Z,0.062
2024-02-24T01:46:14.585Z,0.062
2024-02-24T01:47:14.479Z,0.062
2024-02-24T01:48:15.235Z,0.062
2024-02-24T01:49:14.753Z,0.062
2024-02-24T01:50:14.838Z,0.062
2024-02-24T01:51:14.537Z,0.062
2024-02-24T01:53:14.087Z,0.062
2024-02-24T01:54:13.772Z,0.054
2024-02-24T01:55:14.531Z,0.054
2024-02-24T01:57:14.100Z,0.054
2024-02-24T01:59:13.937Z,0.054
2024-02-24T02:00:13.734Z,0.054
2024-02-24T02:01:14.844Z,0.054
2024-02-24T02:03:14.455Z,0.054
2024-02-24T02:04:14.383Z,0.054
2024-02-24T02:05:15.086Z,0.054
2024-02-24T02:07:14.451Z,0.062
2024-02-24T02:08:14.726Z,0.054
2024-02-24T02:09:14.422Z,0.054
2024-02-24T02:10:14.148Z,0.054
2024-02-24T02:11:15.198Z,0.054
2024-02-24T02:13:14.201Z,0.062
2024-02-24T02:14:13.988Z,0.062
2024-02-24T02:15:13.630Z,0.062
2024-02-24T02:16:14.590Z,0.062
2024-02-24T02:17:14.310Z,0.054
2024-02-24T02:18:15.606Z,0.054
2024-02-24T02:19:15.100Z,0.018
2024-02-24T02:21:14.340Z,0.018
2024-02-24T02:23:13.925Z,0.062
2024-02-24T02:24:14.694Z,0.062
2024-02-24T02:25:14.390Z,0.062
2024-02-24T02:26:14.284Z,0.027
2024-02-24T02:27:14.032Z,0.062
2024-02-24T02:28:13.966Z,0.054
2024-02-24T02:29:14.861Z,0.054
2024-02-24T02:31:14.259Z,0.054
2024-02-24T02:32:14.249Z,0.054
2024-02-24T02:33:15.464Z,0.054
2024-02-24T02:35:14.093Z,0.054
2024-02-24T02:36:13.870Z,0.054
2024-02-24T02:37:14.700Z,0.054
2024-02-24T02:38:14.404Z,0.054
2024-02-24T02:39:14.189Z,0.054
2024-02-24T02:40:13.962Z,0.054
2024-02-24T02:41:14.744Z,0.054
2024-02-24T02:42:14.531Z,0.054
2024-02-24T02:44:14.154Z,0.054
2024-02-24T02:45:13.829Z,0.045
2024-02-24T02:46:14.566Z,0.054
2024-02-24T02:47:28.625Z,0.045
2024-02-24T02:48:14.640Z,0.045
2024-02-24T02:49:15.550Z,0.045
2024-02-24T02:51:14.346Z,0.045
2024-02-24T02:52:13.993Z,0.045
2024-02-24T02:53:13.732Z,0.045
2024-02-24T02:54:14.490Z,0.045
2024-02-24T02:55:14.134Z,0.045
2024-02-24T02:56:13.846Z,0.045
2024-02-24T02:57:14.525Z,0.045
2024-02-24T02:59:14.037Z,0.045
2024-02-24T03:01:15.050Z,0.045
2024-02-24T03:02:14.052Z,0.045
2024-02-24T03:03:13.762Z,0.045
2024-02-24T03:04:14.850Z,0.045
2024-02-24T03:05:14.739Z,0.045
2024-02-24T03:06:15.136Z,0.045
2024-02-24T03:07:13.810Z,0.045
2024-02-24T03:08:14.611Z,0.045
2024-02-24T03:09:14.266Z,0.045
2024-02-24T03:10:14.230Z,0.045
2024-02-24T03:11:14.387Z,0.045
2024-02-24T03:12:15.251Z,0.045
2024-02-24T03:13:14.033Z,0.045
2024-02-24T03:14:13.788Z,0.036
2024-02-24T03:15:14.572Z,0.036
2024-02-24T03:16:14.388Z,0.036
2024-02-24T03:17:14.245Z,0.036
2024-02-24T03:18:14.931Z,0.045
2024-02-24T03:19:14.103Z,0.036
2024-02-24T03:20:14.148Z,0.036
2024-02-24T03:22:14.517Z,0.036
2024-02-24T03:23:14.863Z,0.036
2024-02-24T03:24:14.511Z,0.036
2024-02-24T03:25:14.377Z,0.036
2024-02-24T03:27:14.004Z,0.027
2024-02-24T03:29:14.704Z,0.027
2024-02-24T03:30:14.484Z,0.027
2024-02-24T03:32:14.075Z,0.036
2024-02-24T03:33:14.865Z,0.036
2024-02-24T03:34:15.192Z,0.036
2024-02-24T03:35:14.115Z,0.036
2024-02-24T03:36:13.850Z,0.036
2024-02-24T03:37:14.564Z,0.036
2024-02-24T03:38:14.597Z,0.036
2024-02-24T03:39:14.311Z,0.036
2024-02-24T03:40:14.004Z,0.027
2024-02-24T03:41:13.795Z,0.027
2024-02-24T03:42:14.634Z,0.027
2024-02-24T03:43:14.415Z,0.027
2024-02-24T03:44:14.243Z,0.027
2024-02-24T03:45:13.911Z,0.027
2024-02-24T03:46:14.548Z,0.027
2024-02-24T03:47:14.834Z,0.027
2024-02-24T03:48:15.966Z,0.027
2024-02-24T03:49:14.487Z,0.027
2024-02-24T03:51:14.046Z,0.027
2024-02-24T03:53:14.478Z,0.027
2024-02-24T03:54:14.209Z,0.027
2024-02-24T03:56:15.140Z,0.036
2024-02-24T03:57:13.873Z,0.027
2024-02-24T03:58:14.557Z,0.027
2024-02-24T03:59:14.424Z,0.027
2024-02-24T04:00:14.107Z,0.027
2024-02-24T04:01:14.344Z,0.027
2024-02-24T04:02:14.210Z,0.027
2024-02-24T04:03:13.845Z,0.027
2024-02-24T04:04:15.141Z,0.027
2024-02-24T04:05:13.987Z,0.027
2024-02-24T04:06:14.751Z,0.027
2024-02-24T04:07:14.465Z,0.027
2024-02-24T04:09:14.612Z,0.018
2024-02-24T04:10:14.322Z,0.018
2024-02-24T04:11:14.666Z,0.018
2024-02-24T04:12:15.173Z,0.027
2024-02-24T04:13:13.851Z,0.018
2024-02-24T04:14:14.713Z,0.018
2024-02-24T04:15:14.404Z,0.018
2024-02-24T04:16:14.090Z,0.018
2024-02-24T04:17:13.888Z,0.018
2024-02-24T04:18:15.625Z,0.018
2024-02-24T04:19:15.139Z,0.018
2024-02-24T04:20:13.931Z,0.018
2024-02-24T04:21:14.708Z,0.018
2024-02-24T04:22:14.404Z,0.027
2024-02-24T04:23:14.252Z,0.027
2024-02-24T04:24:14.018Z,0.027
2024-02-24T04:25:13.672Z,0.027
2024-02-24T04:26:14.536Z,0.027
2024-02-24T04:27:14.128Z,0.018
2024-02-24T04:28:13.906Z,0.018
2024-02-24T04:29:14.736Z,0.018
2024-02-24T04:30:14.484Z,0.018
2024-02-24T04:31:14.102Z,0.018
2024-02-24T04:32:13.959Z,0.018
2024-02-24T04:33:14.680Z,0.018
2024-02-24T04:34:15.427Z,0.018
2024-02-24T04:35:14.351Z,0.018
2024-02-24T04:36:14.325Z,0.018
2024-02-24T04:37:13.947Z,0.018
2024-02-24T04:38:15.097Z,0.018
2024-02-24T04:39:13.902Z,0.018
2024-02-24T04:40:14.679Z,0.018
2024-02-24T04:41:14.517Z,0.018
2024-02-24T04:43:13.795Z,0.018
2024-02-24T04:44:14.699Z,0.018
2024-02-24T04:45:14.405Z,0.018
2024-02-24T04:46:14.067Z,0.018
2024-02-24T04:47:13.722Z,0.018
2024-02-24T04:48:15.935Z,0.018
2024-02-24T04:50:13.974Z,0.009
2024-02-24T04:51:18.208Z,0.018
2024-02-24T04:52:13.842Z,0.018
2024-02-24T04:53:14.664Z,0.018
2024-02-24T04:55:14.065Z,0.018
2024-02-24T04:56:13.925Z,0.018
2024-02-24T04:57:14.619Z,0.018
2024-02-24T04:58:14.288Z,0.018
2024-02-24T04:59:14.022Z,0.018
2024-02-24T05:01:14.887Z,0.009
2024-02-24T05:02:14.711Z,0.018
2024-02-24T05:03:14.436Z,0.018
2024-02-24T05:04:14.192Z,0.018
2024-02-24T05:06:14.750Z,0.018
2024-02-24T05:08:14.641Z,0.018
2024-02-24T05:09:15.399Z,0.018
2024-02-24T05:10:14.098Z,0.018
2024-02-24T05:11:14.185Z,0.018
2024-02-24T05:12:14.505Z,0.018
2024-02-24T05:13:18.135Z,0.018
2024-02-24T05:14:13.808Z,0.018
2024-02-24T05:15:14.519Z,0.018
2024-02-24T05:16:14.178Z,0.027
2024-02-24T05:17:13.902Z,0.027
2024-02-24T05:18:16.028Z,0.027
2024-02-24T05:19:14.408Z,0.027
2024-02-24T05:20:14.409Z,0.036
2024-02-24T05:21:14.208Z,0.036
2024-02-24T05:23:14.620Z,0.045
2024-02-24T05:24:14.399Z,0.054
2024-02-24T05:25:14.221Z,0.062
2024-02-24T05:26:14.003Z,0.080
2024-02-24T05:27:13.606Z,0.089
2024-02-24T05:28:14.341Z,0.107
2024-02-24T05:29:14.217Z,0.125
2024-02-24T05:30:14.025Z,0.152
2024-02-24T05:31:13.753Z,0.187
2024-02-24T05:32:14.521Z,0.223
2024-02-24T05:33:16.241Z,0.276
2024-02-24T05:34:14.928Z,0.330
2024-02-24T05:35:13.865Z,0.401
2024-02-24T05:36:14.665Z,0.490
2024-02-24T05:37:14.369Z,0.589
2024-02-24T05:38:14.364Z,0.713
2024-02-24T05:40:13.842Z,1.052
2024-02-24T05:41:14.622Z,1.266
2024-02-24T05:42:14.510Z,1.516
2024-02-24T05:43:14.262Z,1.819
2024-02-24T05:44:14.113Z,2.176
2024-02-24T05:45:14.764Z,2.595
2024-02-24T05:46:18.607Z,3.103
2024-02-24T05:47:14.459Z,3.718
2024-02-24T05:48:14.982Z,4.458
2024-02-24T05:49:13.869Z,5.332
2024-02-24T05:50:14.940Z,6.420
2024-02-24T05:51:14.721Z,7.650
2024-02-24T05:53:18.453Z,10.745
2024-02-24T05:55:14.161Z,14.882
2024-02-24T05:56:14.327Z,17.486
2024-02-24T05:57:14.042Z,20.544
2024-02-24T06:00:14.310Z,32.127
2024-02-24T06:02:13.992Z,43.183
2024-02-24T06:03:14.041Z,50.130
2024-02-24T06:04:13.899Z,58.556
2024-02-24T06:05:14.896Z,67.713
2024-02-24T06:06:14.251Z,77.468
2024-02-24T06:07:14.318Z,90.905
2024-02-24T06:08:14.452Z,107.268
2024-02-24T06:10:14.188Z,146.768
2024-02-24T06:11:14.706Z,169.078
2024-02-24T06:12:14.952Z,189.907
2024-02-24T06:13:13.692Z,211.227
2024-02-24T06:14:14.491Z,235.034
2024-02-24T06:15:14.221Z,261.383
2024-02-24T06:16:13.906Z,290.229
2024-02-24T06:17:14.807Z,323.158
2024-02-24T06:18:15.686Z,354.660
2024-02-24T06:19:14.795Z,387.527
2024-02-24T06:20:14.578Z,422.293
2024-02-24T06:21:14.599Z,455.633
2024-02-24T06:22:14.849Z,489.240
2024-02-24T06:23:14.841Z,502.365
2024-02-24T06:24:14.708Z,532.218
2024-02-24T06:25:14.395Z,558.701
2024-02-24T06:27:13.888Z,602.357
2024-02-24T06:28:14.691Z,620.172
2024-02-24T06:29:14.485Z,648.260
2024-02-24T06:30:14.482Z,667.038
2024-02-24T06:31:14.101Z,682.767
2024-02-24T06:32:13.936Z,695.768
2024-02-24T06:33:15.525Z,704.114
2024-02-24T06:34:19.855Z,720.164
2024-02-24T06:35:14.779Z,723.855
2024-02-24T06:36:14.497Z,714.225
2024-02-24T06:38:14.139Z,747.448
2024-02-24T06:39:13.811Z,740.065
2024-02-24T06:42:14.290Z,770.240
2024-02-24T06:43:14.005Z,790.141
2024-02-24T06:44:13.715Z,816.624
2024-02-24T06:45:14.737Z,838.292
2024-02-24T06:46:14.413Z,857.712
2024-02-24T06:47:29.639Z,883.713
2024-02-24T06:48:14.834Z,919.826
2024-02-24T06:49:16.270Z,975.198
2024-02-24T06:50:14.433Z,1036.830
2024-02-24T06:52:14.045Z,1147.735
2024-02-24T06:53:14.018Z,1206.479
2024-02-24T06:56:14.832Z,1376.769
2024-02-24T06:57:17.409Z,1441.130
2024-02-24T06:58:14.035Z,1504.206
2024-02-24T06:59:13.717Z,1554.282
2024-02-24T07:00:14.624Z,1599.703
2024-02-24T07:01:14.545Z,1659.089
2024-02-24T07:02:14.582Z,1722.646
2024-02-24T07:03:15.247Z,1785.241
2024-02-24T07:04:13.961Z,1855.541
2024-02-24T07:05:13.814Z,1914.283
2024-02-24T07:06:15.539Z,1971.743
2024-02-24T07:07:14.722Z,2024.547
2024-02-24T07:08:14.898Z,2077.673
2024-02-24T07:10:14.507Z,2171.405
2024-02-24T07:11:14.640Z,2233.678
2024-02-24T07:12:15.025Z,2268.667
2024-02-24T07:13:13.670Z,2313.768
2024-02-24T07:14:14.707Z,2346.029
2024-02-24T07:15:14.405Z,2354.053
2024-02-24T07:17:13.952Z,2329.497
2024-02-24T07:18:14.750Z,2332.546
2024-02-24T07:19:14.925Z,2318.262
2024-02-24T07:20:13.863Z,2308.792
2024-02-24T07:21:16.630Z,2330.139
2024-02-24T07:22:14.341Z,2331.262
2024-02-24T07:23:13.987Z,2361.918
2024-02-24T07:24:13.745Z,2402.204
2024-02-24T07:26:14.216Z,2516.319
2024-02-24T07:27:14.432Z,2630.114
2024-02-24T07:28:14.070Z,2862.357
2024-02-24T07:29:13.785Z,2911.951
2024-02-24T07:30:14.594Z,3216.902
2024-02-24T07:31:14.337Z,3563.260
2024-02-24T07:33:15.093Z,3710.920
2024-02-24T07:34:15.383Z,3719.587
2024-02-24T07:35:14.239Z,3866.445
2024-02-24T07:36:14.064Z,3950.386
2024-02-24T07:37:13.699Z,4042.513
2024-02-24T07:38:14.433Z,4117.146
2024-02-24T07:40:14.130Z,4087.774
2024-02-24T07:41:13.815Z,3920.373
2024-02-24T07:42:14.509Z,3769.182
2024-02-24T07:43:14.166Z,3628.103
2024-02-24T07:44:14.489Z,3555.236
2024-02-24T07:46:13.687Z,3803.689
2024-02-24T07:47:14.641Z,3582.360
2024-02-24T07:48:15.305Z,3505.320
2024-02-24T07:49:14.402Z,3481.727
2024-02-24T07:50:14.544Z,3472.417
2024-02-24T07:52:14.222Z,3321.868
2024-02-24T07:53:13.929Z,3277.731
2024-02-24T07:55:14.551Z,3030.561
2024-02-24T07:56:14.332Z,2839.245
2024-02-24T07:57:14.359Z,2627.225
2024-02-24T07:58:14.068Z,2425.797
2024-02-24T07:59:13.852Z,2275.569
2024-02-24T08:00:14.638Z,2220.999
2024-02-24T08:01:14.742Z,2270.594
2024-02-24T08:02:14.594Z,2407.981
2024-02-24T08:03:14.582Z,2596.890
2024-02-24T08:04:14.699Z,2818.862
2024-02-24T08:05:14.383Z,3070.525
2024-02-24T08:06:15.849Z,3311.596
2024-02-24T08:07:15.350Z,3509.493
2024-02-24T08:08:14.179Z,3642.708
2024-02-24T08:11:16.768Z,4387.749
2024-02-24T08:13:14.005Z,5332.773
2024-02-24T08:14:13.901Z,5165.692
2024-02-24T08:15:15.001Z,5229.571
2024-02-24T08:16:13.679Z,5439.666
2024-02-24T08:17:14.341Z,6010.564
2024-02-24T08:18:14.887Z,6487.892
2024-02-24T08:19:14.436Z,6065.134
2024-02-24T08:20:14.200Z,6737.469
2024-02-24T08:21:14.565Z,6632.021
2024-02-24T08:22:14.320Z,7538.043
2024-02-24T08:24:13.807Z,9677.508
2024-02-24T08:25:15.122Z,9750.696
2024-02-24T08:26:13.981Z,7473.361
2024-02-24T08:27:13.677Z,6897.648
2024-02-24T08:28:14.397Z,6464.779
2024-02-24T08:29:14.732Z,5857.447
2024-02-24T08:31:14.723Z,5149.321
2024-02-24T08:32:14.494Z,4953.351
2024-02-24T08:33:15.116Z,4826.877
2024-02-24T08:34:14.775Z,4729.935
2024-02-24T08:35:14.867Z,4633.475
2024-02-24T08:36:15.473Z,4562.052
2024-02-24T08:37:14.301Z,4562.534
2024-02-24T08:38:14.100Z,4562.212
2024-02-24T08:39:14.528Z,4651.290
2024-02-24T08:40:14.345Z,4790.925
2024-02-24T08:42:13.790Z,5018.996
2024-02-24T08:43:14.485Z,5055.269
2024-02-24T08:44:14.237Z,4920.770
2024-02-24T08:45:13.860Z,4741.491
2024-02-24T08:46:18.838Z,4704.416
2024-02-24T08:48:14.855Z,5136.642
2024-02-24T08:50:15.068Z,5598.561
2024-02-24T08:51:14.374Z,5526.657
2024-02-24T08:52:17.633Z,5291.043
2024-02-24T08:53:13.952Z,5028.465
2024-02-24T08:54:14.698Z,4681.464
2024-02-24T08:57:14.069Z,3221.074
2024-02-24T08:58:13.854Z,2867.011
2024-02-24T08:59:14.641Z,2658.522
2024-02-24T09:00:14.460Z,2557.728
2024-02-24T09:02:14.060Z,2469.132
2024-02-24T09:03:14.180Z,2454.527
2024-02-24T09:04:14.308Z,2474.428
2024-02-24T09:05:14.202Z,2493.207
2024-02-24T09:06:15.034Z,2488.231
2024-02-24T09:07:14.350Z,2444.896
2024-02-24T09:08:14.309Z,2361.276
2024-02-24T09:09:14.276Z,2284.236
2024-02-24T09:10:16.625Z,2259.519
2024-02-24T09:11:14.644Z,2262.248
2024-02-24T09:12:14.915Z,2296.916
2024-02-24T09:13:14.672Z,2402.685
2024-02-24T09:15:14.234Z,2778.576
2024-02-24T09:16:13.941Z,2961.546
2024-02-24T09:17:13.667Z,3072.772
2024-02-24T09:18:15.318Z,3092.996
2024-02-24T09:20:14.392Z,3238.729
2024-02-24T09:21:17.568Z,3415.921
2024-02-24T09:22:14.470Z,3562.618
2024-02-24T09:24:13.906Z,3580.755
2024-02-24T09:25:14.608Z,3504.838
2024-02-24T09:26:14.493Z,3462.146
2024-02-24T09:27:14.257Z,3535.333
2024-02-24T09:28:16.278Z,3587.014
2024-02-24T09:29:14.158Z,3559.248
2024-02-24T09:31:13.832Z,3371.945
2024-02-24T09:32:14.724Z,3225.087
2024-02-24T09:33:15.641Z,3095.724
2024-02-24T09:34:18.571Z,2871.024
2024-02-24T09:35:14.771Z,2641.830
2024-02-24T09:36:14.613Z,2349.560
2024-02-24T09:38:14.161Z,2078.635
2024-02-24T09:39:13.840Z,2349.560
2024-02-24T09:40:17.438Z,2638.781
2024-02-24T09:41:14.350Z,2847.270
2024-02-24T09:42:14.064Z,3031.364
2024-02-24T09:43:13.827Z,3144.195
2024-02-24T09:44:14.539Z,3210.642
2024-02-24T09:46:14.028Z,3151.739
2024-02-24T09:47:13.922Z,3168.270
2024-02-24T09:48:15.842Z,3138.898
2024-02-24T09:50:14.493Z,2963.151
2024-02-24T09:51:14.562Z,2904.729
2024-02-24T09:52:14.267Z,2866.369
2024-02-24T09:53:14.224Z,2864.764
2024-02-24T09:56:14.430Z,2799.762
2024-02-24T09:57:14.289Z,2707.795
2024-02-24T09:58:15.924Z,2806.021
2024-02-24T09:59:13.917Z,3232.791
2024-02-24T10:00:14.225Z,3836.111
2024-02-24T10:01:14.176Z,4374.428
2024-02-24T10:02:13.807Z,4616.622
2024-02-24T10:03:15.515Z,4663.167
2024-02-24T10:04:14.534Z,4706.181
2024-02-24T10:05:14.647Z,4846.779
2024-02-24T10:06:15.862Z,5087.047
2024-02-24T10:07:14.633Z,5357.811
2024-02-24T10:08:14.337Z,5758.740
2024-02-24T10:09:14.086Z,6383.566
2024-02-24T10:10:13.780Z,7221.056
2024-02-24T10:11:15.058Z,8129.807
2024-02-24T10:12:14.292Z,8915.775
2024-02-24T10:13:13.988Z,9251.381
2024-02-24T10:14:13.665Z,9208.688
2024-02-24T10:15:14.461Z,8514.686
2024-02-24T10:17:13.876Z,7157.818
2024-02-24T10:18:16.344Z,6926.217
2024-02-24T10:19:15.382Z,6754.321
2024-02-24T10:20:14.315Z,6609.229
2024-02-24T10:21:14.265Z,6697.344
2024-02-24T10:22:14.005Z,7250.909
2024-02-24T10:23:13.795Z,8236.058
2024-02-24T10:24:14.601Z,8469.264
2024-02-24T10:25:14.222Z,8130.609
2024-02-24T10:26:14.455Z,8829.266
2024-02-24T10:27:14.440Z,17647.617
2024-02-24T10:28:14.684Z,13474.777
2024-02-24T10:29:14.433Z,21173.000
2024-02-24T10:30:21.838Z,17681.803
2024-02-24T10:31:17.845Z,19832.984
2024-02-24T10:32:17.558Z,11356.178
2024-02-24T10:33:18.275Z,10196.244
2024-02-24T10:34:18.028Z,8991.370
2024-02-24T10:35:16.897Z,8392.224
2024-02-24T10:36:18.316Z,8336.370
2024-02-24T10:37:17.042Z,8412.929
2024-02-24T10:38:42.255Z,8327.061
2024-02-24T10:39:17.585Z,8219.847
2024-02-24T10:41:14.042Z,8064.322
2024-02-24T10:42:14.155Z,7714.914
2024-02-24T10:43:14.001Z,8345.519
2024-02-24T10:44:28.556Z,16313.862
2024-02-24T10:46:14.178Z,18746.721
2024-02-24T10:47:14.035Z,19142.996
2024-02-24T10:48:15.159Z,18791.660
2024-02-24T10:49:15.054Z,18284.641
2024-02-24T10:51:14.122Z,18049.670
2024-02-24T10:52:13.866Z,17798.648
2024-02-24T10:53:15.336Z,16958.590
2024-02-24T10:54:14.487Z,16243.081
2024-02-24T10:55:14.224Z,16676.912
2024-02-24T10:58:13.760Z,16098.792
2024-02-24T10:59:14.523Z,16902.896
2024-02-24T11:00:14.629Z,17775.535
2024-02-24T11:01:18.486Z,6229.647
2024-02-24T11:02:14.557Z,18374.682
2024-02-24T11:03:14.464Z,18466.488
2024-02-24T11:04:15.252Z,11870.420
2024-02-24T11:05:14.143Z,17083.299
2024-02-24T11:06:14.938Z,10092.400
2024-02-24T11:07:15.549Z,14851.386
2024-02-24T11:08:14.876Z,9221.527
2024-02-24T11:10:14.737Z,18114.672
2024-02-24T11:11:14.755Z,19206.553
2024-02-24T11:12:14.919Z,22311.266
2024-02-24T11:13:13.841Z,22138.246
2024-02-24T11:15:14.974Z,6082.950
2024-02-24T11:18:16.025Z,6892.191
2024-02-24T11:20:14.094Z,12465.393
2024-02-24T11:21:14.220Z,15004.182
2024-02-24T11:22:14.654Z,13761.109
2024-02-24T11:23:14.334Z,16351.740
2024-02-24T11:24:15.815Z,10702.942
2024-02-24T11:25:14.053Z,7390.223
2024-02-24T11:26:13.998Z,8119.374
2024-02-24T11:27:14.628Z,11948.904
2024-02-24T11:28:14.302Z,21220.348
2024-02-24T11:30:14.204Z,20389.277
2024-02-24T11:31:13.982Z,20076.945
2024-02-24T11:32:13.799Z,19945.977
2024-02-24T11:33:14.957Z,19600.580
2024-02-24T11:34:14.595Z,18402.609
2024-02-24T11:35:14.649Z,17840.057
2024-02-24T11:36:14.793Z,17260.170
2024-02-24T11:37:14.502Z,16970.467
2024-02-24T11:38:14.175Z,17329.186
2024-02-24T11:39:13.978Z,18067.807
2024-02-24T11:42:14.573Z,19644.398
2024-02-24T11:43:14.250Z,19485.984
2024-02-24T11:44:14.173Z,8285.171
2024-02-24T11:45:14.463Z,21511.334
2024-02-24T11:46:14.516Z,20432.613
2024-02-24T11:47:14.309Z,19909.223
2024-02-24T11:48:15.322Z,18363.287
2024-02-24T11:49:15.567Z,8586.910
2024-02-24T11:50:14.478Z,17330.789
2024-02-24T11:51:14.202Z,14637.118
2024-02-24T11:52:13.901Z,19086.500
2024-02-24T11:53:14.647Z,18387.521
2024-02-24T11:54:14.501Z,18534.059
2024-02-24T11:55:14.167Z,18385.918
2024-02-24T11:56:13.865Z,17224.539
2024-02-24T11:57:18.635Z,17718.076
2024-02-24T11:58:14.367Z,18380.781
2024-02-24T11:59:14.034Z,18983.459
2024-02-24T12:00:14.204Z,6498.324
2024-02-24T12:01:14.438Z,21772.949
2024-02-24T12:02:14.211Z,19084.734
2024-02-24T12:03:14.027Z,21485.012
2024-02-24T12:04:14.274Z,21958.486
2024-02-24T12:05:14.064Z,8967.456
2024-02-24T12:06:14.526Z,8659.296
2024-02-24T12:07:14.845Z,7494.708
2024-02-24T12:08:14.684Z,10761.044
2024-02-24T12:09:14.669Z,7394.075
2024-02-24T12:10:14.559Z,6361.417
2024-02-24T12:11:14.788Z,5927.425
2024-02-24T12:12:14.942Z,6840.992
2024-02-24T12:14:14.354Z,19438.957
2024-02-24T12:15:18.223Z,8959.912
2024-02-24T12:16:14.056Z,8314.542
2024-02-24T12:17:13.774Z,7876.377
2024-02-24T12:19:14.218Z,13488.741
2024-02-24T12:20:14.091Z,9456.179
2024-02-24T12:21:14.317Z,20363.598
2024-02-24T12:22:14.118Z,6999.565
2024-02-24T12:25:13.969Z,4329.327
2024-02-24T12:26:13.786Z,4367.847
2024-02-24T12:27:14.965Z,4762.677
2024-02-24T12:28:14.595Z,5816.520
2024-02-24T12:29:14.473Z,6205.251
2024-02-24T12:30:14.351Z,6641.650
2024-02-24T12:31:14.029Z,6388.061
2024-02-24T12:34:14.769Z,5341.279
2024-02-24T12:35:14.635Z,5517.348
2024-02-24T12:36:14.867Z,5782.815
2024-02-24T12:37:14.646Z,8966.975
2024-02-24T12:39:15.056Z,18299.889
2024-02-24T12:40:13.832Z,18154.637
2024-02-24T12:41:14.712Z,16655.566
2024-02-24T12:42:14.862Z,18932.580
2024-02-24T12:43:18.037Z,18172.131
2024-02-24T12:44:13.784Z,18303.740
2024-02-24T12:45:14.836Z,9140.154
2024-02-24T12:46:14.601Z,17242.355
2024-02-24T12:47:14.353Z,5322.822
2024-02-24T12:48:14.955Z,8919.146
2024-02-24T12:49:14.600Z,6850.782
2024-02-24T12:50:15.032Z,7620.540
2024-02-24T12:51:14.012Z,12519.321
2024-02-24T12:52:13.901Z,18891.332
2024-02-24T12:53:14.685Z,16021.912
2024-02-24T12:54:18.148Z,9086.065
2024-02-24T12:55:13.821Z,16525.561
2024-02-24T12:56:14.564Z,15580.858
2024-02-24T12:57:14.451Z,16010.196
2024-02-24T12:59:14.033Z,14962.612
2024-02-24T13:00:14.081Z,15263.068
2024-02-24T13:01:14.143Z,15324.700
2024-02-24T13:04:14.490Z,15585.834
2024-02-24T13:05:14.742Z,12783.022
2024-02-24T13:06:15.585Z,15512.485
2024-02-24T13:07:14.301Z,5933.043
2024-02-24T13:09:14.860Z,5141.938
2024-02-24T13:10:14.127Z,12584.163
2024-02-24T13:11:14.593Z,18127.352
2024-02-24T13:12:15.148Z,18531.010
2024-02-24T13:13:13.894Z,19757.711
2024-02-24T13:14:14.945Z,20861.951
2024-02-24T13:16:14.597Z,8519.982
2024-02-24T13:17:14.281Z,8571.503
2024-02-24T13:18:15.875Z,7990.653
2024-02-24T13:19:15.186Z,7201.153
2024-02-24T13:22:14.765Z,5918.438
2024-02-24T13:23:14.581Z,5778.481
2024-02-24T13:24:14.354Z,6834.411
2024-02-24T13:25:14.071Z,14077.134
2024-02-24T13:26:13.809Z,15494.510
2024-02-24T13:27:14.632Z,16545.785
2024-02-24T13:28:14.314Z,7577.044
2024-02-24T13:29:14.001Z,4429.479
2024-02-24T13:30:14.590Z,4236.558
2024-02-24T13:31:14.322Z,4660.278
2024-02-24T13:32:13.993Z,13552.620
2024-02-24T13:33:14.964Z,14848.337
2024-02-24T13:34:14.572Z,14743.049
2024-02-24T13:36:14.694Z,13504.470
2024-02-24T13:37:18.045Z,13073.527
2024-02-24T13:38:13.745Z,13267.893
2024-02-24T13:39:14.990Z,6825.102
2024-02-24T13:40:13.657Z,4627.857
2024-02-24T13:41:14.358Z,4907.769
2024-02-24T13:42:14.418Z,5053.503
2024-02-24T13:43:14.077Z,4976.784
2024-02-24T13:44:14.078Z,4970.846
2024-02-24T13:45:14.230Z,5280.771
2024-02-24T13:46:13.934Z,5273.228
2024-02-24T13:47:14.732Z,5179.977
2024-02-24T13:48:15.549Z,5145.791
2024-02-24T13:49:15.759Z,5472.890
2024-02-24T13:51:14.307Z,5997.725
2024-02-24T13:52:14.038Z,5956.155
2024-02-24T13:53:16.954Z,5867.398
2024-02-24T13:54:13.865Z,5517.830
2024-02-24T13:55:14.777Z,5030.230
2024-02-24T13:58:13.738Z,4133.036
2024-02-24T13:59:14.616Z,3792.134
2024-02-24T14:00:14.590Z,3779.615
2024-02-24T14:01:14.467Z,3858.099
2024-02-24T14:03:14.125Z,4856.088
2024-02-24T14:04:14.209Z,7665.641
2024-02-24T14:05:14.294Z,7801.103
2024-02-24T14:06:15.182Z,6605.538
2024-02-24T14:07:14.217Z,7520.228
2024-02-24T14:08:13.943Z,6299.464